sensor_id;sensor_type;location;lat;lon;timestamp;P1;durP1;ratioP1;P2;durP2;ratioP2
6513;SDS011;3290;47.716;9.070;2023-03-11T00:00:30;4.60;;;1.63;;
6513;SDS011;3290;47.716;9.070;2023-03-11T00:03:00;1.50;;;1.40;;
6513;SDS011;3290;47.716;9.070;2023-03-11T00:05:27;4.20;;;1.57;;
6513;SDS011;3290;47.716;9.070;2023-03-11T00:07:55;1.50;;;1.40;;
6513;SDS011;3290;47.716;9.070;2023-03-11T00:10:25;4.20;;;1.73;;
6513;SDS011;3290;47.716;9.070;2023-03-11T00:12:56;8.90;;;1.80;;
6513;SDS011;3290;47.716;9.070;2023-03-11T00:15:22;4.13;;;1.90;;
6513;SDS011;3290;47.716;9.070;2023-03-11T00:17:48;1.70;;;1.60;;
6513;SDS011;3290;47.716;9.070;2023-03-11T00:20:16;3.57;;;1.90;;
6513;SDS011;3290;47.716;9.070;2023-03-11T00:22:47;2.67;;;1.90;;
6513;SDS011;3290;47.716;9.070;2023-03-11T00:25:14;2.53;;;1.90;;
6513;SDS011;3290;47.716;9.070;2023-03-11T00:27:40;3.00;;;1.77;;
6513;SDS011;3290;47.716;9.070;2023-03-11T00:30:06;8.73;;;1.77;;
6513;SDS011;3290;47.716;9.070;2023-03-11T00:32:32;4.93;;;1.70;;
6513;SDS011;3290;47.716;9.070;2023-03-11T00:34:57;1.93;;;1.67;;
6513;SDS011;3290;47.716;9.070;2023-03-11T00:37:23;1.87;;;1.50;;
6513;SDS011;3290;47.716;9.070;2023-03-11T00:39:48;2.50;;;2.03;;
6513;SDS011;3290;47.716;9.070;2023-03-11T00:42:13;3.30;;;1.80;;
6513;SDS011;3290;47.716;9.070;2023-03-11T00:44:39;2.97;;;2.00;;
6513;SDS011;3290;47.716;9.070;2023-03-11T00:47:04;2.40;;;1.97;;
6513;SDS011;3290;47.716;9.070;2023-03-11T00:49:29;2.50;;;1.70;;
6513;SDS011;3290;47.716;9.070;2023-03-11T00:51:55;3.43;;;1.70;;
6513;SDS011;3290;47.716;9.070;2023-03-11T00:54:20;4.13;;;2.00;;
6513;SDS011;3290;47.716;9.070;2023-03-11T00:56:46;3.10;;;2.57;;
6513;SDS011;3290;47.716;9.070;2023-03-11T00:59:11;2.00;;;1.57;;
6513;SDS011;3290;47.716;9.070;2023-03-11T01:01:36;1.70;;;1.40;;
6513;SDS011;3290;47.716;9.070;2023-03-11T01:04:02;1.90;;;1.60;;
6513;SDS011;3290;47.716;9.070;2023-03-11T01:06:27;1.50;;;1.40;;
6513;SDS011;3290;47.716;9.070;2023-03-11T01:08:53;1.37;;;1.20;;
6513;SDS011;3290;47.716;9.070;2023-03-11T01:11:18;1.37;;;1.27;;
6513;SDS011;3290;47.716;9.070;2023-03-11T01:13:43;1.77;;;1.37;;
6513;SDS011;3290;47.716;9.070;2023-03-11T01:16:09;2.80;;;1.77;;
6513;SDS011;3290;47.716;9.070;2023-03-11T01:18:34;1.90;;;1.80;;
6513;SDS011;3290;47.716;9.070;2023-03-11T01:21:00;1.93;;;1.50;;
6513;SDS011;3290;47.716;9.070;2023-03-11T01:23:25;3.00;;;1.33;;
6513;SDS011;3290;47.716;9.070;2023-03-11T01:25:51;1.97;;;1.33;;
6513;SDS011;3290;47.716;9.070;2023-03-11T01:28:16;2.20;;;1.30;;
6513;SDS011;3290;47.716;9.070;2023-03-11T01:30:42;1.83;;;1.73;;
6513;SDS011;3290;47.716;9.070;2023-03-11T01:33:12;2.53;;;1.60;;
6513;SDS011;3290;47.716;9.070;2023-03-11T01:35:40;7.33;;;1.70;;
6513;SDS011;3290;47.716;9.070;2023-03-11T01:38:06;2.33;;;1.80;;
6513;SDS011;3290;47.716;9.070;2023-03-11T01:40:33;2.70;;;1.43;;
6513;SDS011;3290;47.716;9.070;2023-03-11T01:43:02;2.27;;;1.80;;
6513;SDS011;3290;47.716;9.070;2023-03-11T01:47:57;1.50;;;1.40;;
6513;SDS011;3290;47.716;9.070;2023-03-11T01:50:23;1.57;;;1.47;;
6513;SDS011;3290;47.716;9.070;2023-03-11T01:52:51;1.67;;;1.53;;
6513;SDS011;3290;47.716;9.070;2023-03-11T01:55:17;1.83;;;1.63;;
6513;SDS011;3290;47.716;9.070;2023-03-11T01:57:43;2.70;;;1.33;;
6513;SDS011;3290;47.716;9.070;2023-03-11T02:00:11;1.43;;;1.33;;
6513;SDS011;3290;47.716;9.070;2023-03-11T02:02:41;1.77;;;1.67;;
6513;SDS011;3290;47.716;9.070;2023-03-11T02:05:12;1.63;;;1.27;;
6513;SDS011;3290;47.716;9.070;2023-03-11T02:07:38;2.93;;;1.33;;
6513;SDS011;3290;47.716;9.070;2023-03-11T02:10:04;1.43;;;1.33;;
6513;SDS011;3290;47.716;9.070;2023-03-11T02:12:33;1.53;;;1.40;;
6513;SDS011;3290;47.716;9.070;2023-03-11T02:15:01;1.40;;;1.30;;
6513;SDS011;3290;47.716;9.070;2023-03-11T02:17:29;1.80;;;1.40;;
6513;SDS011;3290;47.716;9.070;2023-03-11T02:22:42;1.47;;;1.37;;
6513;SDS011;3290;47.716;9.070;2023-03-11T02:25:20;1.30;;;1.20;;
6513;SDS011;3290;47.716;9.070;2023-03-11T02:27:47;2.80;;;1.50;;
6513;SDS011;3290;47.716;9.070;2023-03-11T02:30:16;2.03;;;1.83;;
6513;SDS011;3290;47.716;9.070;2023-03-11T02:32:42;2.80;;;1.80;;
6513;SDS011;3290;47.716;9.070;2023-03-11T02:35:09;3.13;;;1.37;;
6513;SDS011;3290;47.716;9.070;2023-03-11T02:37:34;3.13;;;1.90;;
6513;SDS011;3290;47.716;9.070;2023-03-11T02:42:50;2.00;;;1.77;;
6513;SDS011;3290;47.716;9.070;2023-03-11T02:45:19;1.70;;;1.50;;
6513;SDS011;3290;47.716;9.070;2023-03-11T02:47:48;1.60;;;1.50;;
6513;SDS011;3290;47.716;9.070;2023-03-11T02:50:15;1.83;;;1.60;;
6513;SDS011;3290;47.716;9.070;2023-03-11T02:52:42;1.90;;;1.80;;
6513;SDS011;3290;47.716;9.070;2023-03-11T02:55:08;3.37;;;2.37;;
6513;SDS011;3290;47.716;9.070;2023-03-11T02:57:35;1.90;;;1.80;;
6513;SDS011;3290;47.716;9.070;2023-03-11T03:00:02;1.80;;;1.23;;
6513;SDS011;3290;47.716;9.070;2023-03-11T03:02:34;2.53;;;2.00;;
6513;SDS011;3290;47.716;9.070;2023-03-11T03:05:00;2.60;;;1.67;;
6513;SDS011;3290;47.716;9.070;2023-03-11T03:07:25;1.87;;;1.73;;
6513;SDS011;3290;47.716;9.070;2023-03-11T03:09:51;4.17;;;2.60;;
6513;SDS011;3290;47.716;9.070;2023-03-11T03:12:16;3.17;;;1.90;;
6513;SDS011;3290;47.716;9.070;2023-03-11T03:14:41;2.80;;;2.37;;
6513;SDS011;3290;47.716;9.070;2023-03-11T03:17:07;5.47;;;2.90;;
6513;SDS011;3290;47.716;9.070;2023-03-11T03:19:32;8.37;;;3.47;;
6513;SDS011;3290;47.716;9.070;2023-03-11T03:21:58;6.60;;;3.60;;
6513;SDS011;3290;47.716;9.070;2023-03-11T03:24:23;3.97;;;2.63;;
6513;SDS011;3290;47.716;9.070;2023-03-11T03:26:48;2.43;;;1.57;;
6513;SDS011;3290;47.716;9.070;2023-03-11T03:29:14;2.03;;;1.83;;
6513;SDS011;3290;47.716;9.070;2023-03-11T03:31:39;2.47;;;1.80;;
6513;SDS011;3290;47.716;9.070;2023-03-11T03:34:04;2.53;;;2.30;;
6513;SDS011;3290;47.716;9.070;2023-03-11T03:36:30;2.33;;;2.10;;
6513;SDS011;3290;47.716;9.070;2023-03-11T03:38:55;2.40;;;2.20;;
6513;SDS011;3290;47.716;9.070;2023-03-11T03:41:22;2.00;;;1.77;;
6513;SDS011;3290;47.716;9.070;2023-03-11T03:43:47;2.40;;;1.60;;
6513;SDS011;3290;47.716;9.070;2023-03-11T03:46:13;3.47;;;2.20;;
6513;SDS011;3290;47.716;9.070;2023-03-11T03:48:38;2.20;;;2.00;;
6513;SDS011;3290;47.716;9.070;2023-03-11T03:51:07;3.13;;;1.67;;
6513;SDS011;3290;47.716;9.070;2023-03-11T03:53:34;1.77;;;1.67;;
6513;SDS011;3290;47.716;9.070;2023-03-11T03:56:04;1.80;;;1.70;;
6513;SDS011;3290;47.716;9.070;2023-03-11T03:58:31;1.50;;;1.40;;
6513;SDS011;3290;47.716;9.070;2023-03-11T04:00:57;1.60;;;1.50;;
6513;SDS011;3290;47.716;9.070;2023-03-11T04:03:23;1.83;;;1.70;;
6513;SDS011;3290;47.716;9.070;2023-03-11T04:05:49;1.63;;;1.43;;
6513;SDS011;3290;47.716;9.070;2023-03-11T04:08:15;1.63;;;1.53;;
6513;SDS011;3290;47.716;9.070;2023-03-11T04:10:41;1.90;;;1.70;;
6513;SDS011;3290;47.716;9.070;2023-03-11T04:13:06;1.90;;;1.70;;
6513;SDS011;3290;47.716;9.070;2023-03-11T04:15:31;1.73;;;1.43;;
6513;SDS011;3290;47.716;9.070;2023-03-11T04:17:57;1.73;;;1.53;;
6513;SDS011;3290;47.716;9.070;2023-03-11T04:20:22;1.60;;;1.50;;
6513;SDS011;3290;47.716;9.070;2023-03-11T04:22:48;2.40;;;1.87;;
6513;SDS011;3290;47.716;9.070;2023-03-11T04:25:13;1.80;;;1.70;;
6513;SDS011;3290;47.716;9.070;2023-03-11T04:27:38;2.60;;;1.70;;
6513;SDS011;3290;47.716;9.070;2023-03-11T04:30:07;3.23;;;1.73;;
6513;SDS011;3290;47.716;9.070;2023-03-11T04:32:33;2.77;;;1.40;;
6513;SDS011;3290;47.716;9.070;2023-03-11T04:34:58;2.07;;;1.63;;
6513;SDS011;3290;47.716;9.070;2023-03-11T04:37:26;3.87;;;1.70;;
6513;SDS011;3290;47.716;9.070;2023-03-11T04:39:52;1.67;;;1.30;;
6513;SDS011;3290;47.716;9.070;2023-03-11T04:42:17;2.53;;;1.80;;
6513;SDS011;3290;47.716;9.070;2023-03-11T04:44:43;1.70;;;1.47;;
6513;SDS011;3290;47.716;9.070;2023-03-11T04:47:08;1.50;;;1.40;;
6513;SDS011;3290;47.716;9.070;2023-03-11T04:49:34;1.40;;;1.30;;
6513;SDS011;3290;47.716;9.070;2023-03-11T04:51:59;1.73;;;1.30;;
6513;SDS011;3290;47.716;9.070;2023-03-11T04:54:24;1.40;;;1.30;;
6513;SDS011;3290;47.716;9.070;2023-03-11T04:56:50;1.87;;;1.67;;
6513;SDS011;3290;47.716;9.070;2023-03-11T04:59:15;2.47;;;1.80;;
6513;SDS011;3290;47.716;9.070;2023-03-11T05:01:40;1.47;;;1.37;;
6513;SDS011;3290;47.716;9.070;2023-03-11T05:04:06;3.30;;;1.30;;
6513;SDS011;3290;47.716;9.070;2023-03-11T05:06:32;1.50;;;1.37;;
6513;SDS011;3290;47.716;9.070;2023-03-11T05:08:57;3.20;;;1.70;;
6513;SDS011;3290;47.716;9.070;2023-03-11T05:11:23;1.50;;;1.40;;
6513;SDS011;3290;47.716;9.070;2023-03-11T05:13:48;3.70;;;1.97;;
6513;SDS011;3290;47.716;9.070;2023-03-11T05:16:15;3.33;;;2.20;;
6513;SDS011;3290;47.716;9.070;2023-03-11T05:18:47;2.83;;;1.90;;
6513;SDS011;3290;47.716;9.070;2023-03-11T05:21:15;2.57;;;1.93;;
6513;SDS011;3290;47.716;9.070;2023-03-11T05:23:40;2.03;;;1.87;;
6513;SDS011;3290;47.716;9.070;2023-03-11T05:26:06;2.47;;;1.90;;
6513;SDS011;3290;47.716;9.070;2023-03-11T05:28:32;2.27;;;2.07;;
6513;SDS011;3290;47.716;9.070;2023-03-11T05:30:57;5.83;;;2.43;;
6513;SDS011;3290;47.716;9.070;2023-03-11T05:33:22;2.67;;;2.03;;
6513;SDS011;3290;47.716;9.070;2023-03-11T05:35:48;4.67;;;2.70;;
6513;SDS011;3290;47.716;9.070;2023-03-11T05:38:15;2.70;;;2.10;;
6513;SDS011;3290;47.716;9.070;2023-03-11T05:40:41;6.70;;;1.90;;
6513;SDS011;3290;47.716;9.070;2023-03-11T05:43:06;2.93;;;1.87;;
6513;SDS011;3290;47.716;9.070;2023-03-11T05:45:31;5.80;;;2.33;;
6513;SDS011;3290;47.716;9.070;2023-03-11T05:47:58;2.03;;;1.80;;
6513;SDS011;3290;47.716;9.070;2023-03-11T05:50:23;5.50;;;2.20;;
6513;SDS011;3290;47.716;9.070;2023-03-11T05:52:49;3.00;;;1.70;;
6513;SDS011;3290;47.716;9.070;2023-03-11T05:55:14;2.37;;;1.50;;
6513;SDS011;3290;47.716;9.070;2023-03-11T05:57:39;4.03;;;2.20;;
6513;SDS011;3290;47.716;9.070;2023-03-11T06:00:05;2.60;;;1.80;;
6513;SDS011;3290;47.716;9.070;2023-03-11T06:02:36;2.47;;;1.73;;
6513;SDS011;3290;47.716;9.070;2023-03-11T06:05:03;2.40;;;1.50;;
6513;SDS011;3290;47.716;9.070;2023-03-11T06:07:28;6.93;;;2.10;;
6513;SDS011;3290;47.716;9.070;2023-03-11T06:09:54;1.90;;;1.57;;
6513;SDS011;3290;47.716;9.070;2023-03-11T06:12:19;2.50;;;1.80;;
6513;SDS011;3290;47.716;9.070;2023-03-11T06:14:44;2.90;;;2.20;;
6513;SDS011;3290;47.716;9.070;2023-03-11T06:17:10;2.00;;;1.90;;
6513;SDS011;3290;47.716;9.070;2023-03-11T06:19:35;3.03;;;1.67;;
6513;SDS011;3290;47.716;9.070;2023-03-11T06:22:01;2.40;;;1.90;;
6513;SDS011;3290;47.716;9.070;2023-03-11T06:24:26;3.90;;;1.60;;
6513;SDS011;3290;47.716;9.070;2023-03-11T06:26:52;2.20;;;2.00;;
6513;SDS011;3290;47.716;9.070;2023-03-11T06:29:17;2.50;;;1.60;;
6513;SDS011;3290;47.716;9.070;2023-03-11T06:31:43;1.33;;;1.23;;
6513;SDS011;3290;47.716;9.070;2023-03-11T06:34:10;3.33;;;1.70;;
6513;SDS011;3290;47.716;9.070;2023-03-11T06:36:35;3.13;;;1.47;;
6513;SDS011;3290;47.716;9.070;2023-03-11T06:39:01;1.87;;;1.30;;
6513;SDS011;3290;47.716;9.070;2023-03-11T06:41:28;1.70;;;1.10;;
6513;SDS011;3290;47.716;9.070;2023-03-11T06:43:53;2.03;;;1.57;;
6513;SDS011;3290;47.716;9.070;2023-03-11T06:46:20;11.13;;;5.37;;
6513;SDS011;3290;47.716;9.070;2023-03-11T06:48:47;5.10;;;2.40;;
6513;SDS011;3290;47.716;9.070;2023-03-11T06:51:16;1.77;;;1.30;;
6513;SDS011;3290;47.716;9.070;2023-03-11T06:53:42;1.50;;;1.30;;
6513;SDS011;3290;47.716;9.070;2023-03-11T06:56:11;3.13;;;1.40;;
6513;SDS011;3290;47.716;9.070;2023-03-11T06:58:38;2.17;;;1.50;;
6513;SDS011;3290;47.716;9.070;2023-03-11T07:01:07;8.60;;;4.60;;
6513;SDS011;3290;47.716;9.070;2023-03-11T07:03:35;3.13;;;1.27;;
6513;SDS011;3290;47.716;9.070;2023-03-11T07:06:01;2.10;;;1.17;;
6513;SDS011;3290;47.716;9.070;2023-03-11T07:08:26;3.50;;;1.47;;
6513;SDS011;3290;47.716;9.070;2023-03-11T07:11:00;2.90;;;1.20;;
6513;SDS011;3290;47.716;9.070;2023-03-11T07:13:29;1.20;;;1.10;;
6513;SDS011;3290;47.716;9.070;2023-03-11T07:16:05;4.60;;;1.30;;
6513;SDS011;3290;47.716;9.070;2023-03-11T07:18:33;1.40;;;1.30;;
6513;SDS011;3290;47.716;9.070;2023-03-11T07:21:02;2.13;;;1.50;;
6513;SDS011;3290;47.716;9.070;2023-03-11T07:23:30;2.20;;;1.47;;
6513;SDS011;3290;47.716;9.070;2023-03-11T07:25:56;1.30;;;1.20;;
6513;SDS011;3290;47.716;9.070;2023-03-11T07:28:22;1.20;;;1.00;;
6513;SDS011;3290;47.716;9.070;2023-03-11T07:30:49;6.30;;;1.50;;
6513;SDS011;3290;47.716;9.070;2023-03-11T07:33:15;2.70;;;1.40;;
6513;SDS011;3290;47.716;9.070;2023-03-11T07:35:40;3.33;;;1.20;;
6513;SDS011;3290;47.716;9.070;2023-03-11T07:38:06;3.13;;;1.43;;
6513;SDS011;3290;47.716;9.070;2023-03-11T07:40:32;1.43;;;1.07;;
6513;SDS011;3290;47.716;9.070;2023-03-11T07:42:58;1.20;;;1.10;;
6513;SDS011;3290;47.716;9.070;2023-03-11T07:45:23;2.20;;;1.10;;
6513;SDS011;3290;47.716;9.070;2023-03-11T07:47:48;2.50;;;1.30;;
6513;SDS011;3290;47.716;9.070;2023-03-11T07:50:14;3.37;;;1.37;;
6513;SDS011;3290;47.716;9.070;2023-03-11T07:52:41;1.20;;;1.10;;
6513;SDS011;3290;47.716;9.070;2023-03-11T07:55:09;5.17;;;1.60;;
6513;SDS011;3290;47.716;9.070;2023-03-11T07:57:34;2.27;;;1.43;;
6513;SDS011;3290;47.716;9.070;2023-03-11T08:00:00;3.97;;;2.00;;
6513;SDS011;3290;47.716;9.070;2023-03-11T08:02:26;1.53;;;1.20;;
6513;SDS011;3290;47.716;9.070;2023-03-11T08:04:51;2.17;;;1.30;;
6513;SDS011;3290;47.716;9.070;2023-03-11T08:07:17;1.17;;;1.07;;
6513;SDS011;3290;47.716;9.070;2023-03-11T08:09:44;4.50;;;1.23;;
6513;SDS011;3290;47.716;9.070;2023-03-11T08:12:10;1.63;;;1.10;;
6513;SDS011;3290;47.716;9.070;2023-03-11T08:14:35;1.50;;;1.40;;
6513;SDS011;3290;47.716;9.070;2023-03-11T08:17:00;1.40;;;1.30;;
6513;SDS011;3290;47.716;9.070;2023-03-11T08:19:26;2.20;;;1.20;;
6513;SDS011;3290;47.716;9.070;2023-03-11T08:21:51;1.07;;;0.97;;
6513;SDS011;3290;47.716;9.070;2023-03-11T08:24:16;2.37;;;1.30;;
6513;SDS011;3290;47.716;9.070;2023-03-11T08:26:42;2.20;;;1.70;;
6513;SDS011;3290;47.716;9.070;2023-03-11T08:29:07;2.73;;;1.27;;
6513;SDS011;3290;47.716;9.070;2023-03-11T08:31:33;14.43;;;5.73;;
6513;SDS011;3290;47.716;9.070;2023-03-11T08:34:02;19.50;;;9.93;;
6513;SDS011;3290;47.716;9.070;2023-03-11T08:36:29;4.83;;;2.60;;
6513;SDS011;3290;47.716;9.070;2023-03-11T08:38:55;1.40;;;1.30;;
6513;SDS011;3290;47.716;9.070;2023-03-11T08:41:20;1.30;;;1.20;;
6513;SDS011;3290;47.716;9.070;2023-03-11T08:43:46;2.03;;;1.37;;
6513;SDS011;3290;47.716;9.070;2023-03-11T08:46:18;3.13;;;2.40;;
6513;SDS011;3290;47.716;9.070;2023-03-11T08:48:52;1.60;;;1.50;;
6513;SDS011;3290;47.716;9.070;2023-03-11T08:51:18;2.47;;;1.63;;
6513;SDS011;3290;47.716;9.070;2023-03-11T08:53:44;4.10;;;1.17;;
6513;SDS011;3290;47.716;9.070;2023-03-11T08:56:10;2.57;;;1.40;;
6513;SDS011;3290;47.716;9.070;2023-03-11T08:58:35;5.30;;;1.63;;
6513;SDS011;3290;47.716;9.070;2023-03-11T09:01:01;4.20;;;1.40;;
6513;SDS011;3290;47.716;9.070;2023-03-11T09:03:26;1.67;;;1.03;;
6513;SDS011;3290;47.716;9.070;2023-03-11T09:05:58;1.77;;;1.10;;
6513;SDS011;3290;47.716;9.070;2023-03-11T09:08:25;3.50;;;1.60;;
6513;SDS011;3290;47.716;9.070;2023-03-11T09:10:51;5.90;;;2.13;;
6513;SDS011;3290;47.716;9.070;2023-03-11T09:13:17;3.23;;;1.93;;
6513;SDS011;3290;47.716;9.070;2023-03-11T09:15:42;1.50;;;1.30;;
6513;SDS011;3290;47.716;9.070;2023-03-11T09:18:11;3.97;;;1.60;;
6513;SDS011;3290;47.716;9.070;2023-03-11T09:20:38;2.33;;;1.40;;
6513;SDS011;3290;47.716;9.070;2023-03-11T09:23:03;1.47;;;1.30;;
6513;SDS011;3290;47.716;9.070;2023-03-11T09:25:29;2.20;;;1.23;;
6513;SDS011;3290;47.716;9.070;2023-03-11T09:27:54;2.90;;;1.53;;
6513;SDS011;3290;47.716;9.070;2023-03-11T09:30:20;2.37;;;1.20;;
6513;SDS011;3290;47.716;9.070;2023-03-11T09:32:45;2.40;;;1.00;;
6513;SDS011;3290;47.716;9.070;2023-03-11T09:35:11;1.87;;;1.20;;
6513;SDS011;3290;47.716;9.070;2023-03-11T09:37:36;7.07;;;1.20;;
6513;SDS011;3290;47.716;9.070;2023-03-11T09:40:02;1.20;;;1.10;;
6513;SDS011;3290;47.716;9.070;2023-03-11T09:42:36;1.90;;;1.03;;
6513;SDS011;3290;47.716;9.070;2023-03-11T09:50:30;6.43;;;1.40;;
6513;SDS011;3290;47.716;9.070;2023-03-11T09:55:34;1.30;;;1.00;;
6513;SDS011;3290;47.716;9.070;2023-03-11T10:00:50;0.93;;;0.90;;
6513;SDS011;3290;47.716;9.070;2023-03-11T10:03:23;2.93;;;1.30;;
6513;SDS011;3290;47.716;9.070;2023-03-11T10:05:53;9.90;;;1.03;;
6513;SDS011;3290;47.716;9.070;2023-03-11T10:10:59;1.23;;;0.90;;
6513;SDS011;3290;47.716;9.070;2023-03-11T10:13:37;2.40;;;1.23;;
6513;SDS011;3290;47.716;9.070;2023-03-11T10:16:31;2.63;;;1.20;;
6513;SDS011;3290;47.716;9.070;2023-03-11T10:19:10;1.23;;;1.00;;
6513;SDS011;3290;47.716;9.070;2023-03-11T10:21:49;2.10;;;1.00;;
6513;SDS011;3290;47.716;9.070;2023-03-11T10:27:15;1.13;;;1.00;;
6513;SDS011;3290;47.716;9.070;2023-03-11T10:29:56;1.40;;;1.00;;
6513;SDS011;3290;47.716;9.070;2023-03-11T10:35:05;1.73;;;1.40;;
6513;SDS011;3290;47.716;9.070;2023-03-11T10:37:41;2.40;;;1.00;;
6513;SDS011;3290;47.716;9.070;2023-03-11T10:42:44;1.63;;;1.00;;
6513;SDS011;3290;47.716;9.070;2023-03-11T10:45:13;1.70;;;1.13;;
6513;SDS011;3290;47.716;9.070;2023-03-11T10:47:39;2.10;;;1.00;;
6513;SDS011;3290;47.716;9.070;2023-03-11T10:50:05;3.03;;;1.10;;
6513;SDS011;3290;47.716;9.070;2023-03-11T10:52:30;2.87;;;1.20;;
6513;SDS011;3290;47.716;9.070;2023-03-11T10:55:00;1.83;;;1.17;;
6513;SDS011;3290;47.716;9.070;2023-03-11T10:57:33;2.60;;;1.13;;
6513;SDS011;3290;47.716;9.070;2023-03-11T11:00:05;2.00;;;1.40;;
6513;SDS011;3290;47.716;9.070;2023-03-11T11:02:52;2.87;;;1.37;;
6513;SDS011;3290;47.716;9.070;2023-03-11T11:05:32;3.67;;;1.50;;
6513;SDS011;3290;47.716;9.070;2023-03-11T11:08:31;3.77;;;1.70;;
6513;SDS011;3290;47.716;9.070;2023-03-11T11:10:57;3.07;;;1.50;;
6513;SDS011;3290;47.716;9.070;2023-03-11T11:13:26;2.53;;;1.30;;
6513;SDS011;3290;47.716;9.070;2023-03-11T11:16:05;1.57;;;1.23;;
6513;SDS011;3290;47.716;9.070;2023-03-11T11:18:44;1.40;;;1.30;;
6513;SDS011;3290;47.716;9.070;2023-03-11T11:21:36;1.83;;;1.20;;
6513;SDS011;3290;47.716;9.070;2023-03-11T11:29:41;2.63;;;1.17;;
6513;SDS011;3290;47.716;9.070;2023-03-11T11:37:39;1.10;;;1.00;;
6513;SDS011;3290;47.716;9.070;2023-03-11T11:42:40;4.13;;;2.00;;
6513;SDS011;3290;47.716;9.070;2023-03-11T11:45:15;1.23;;;1.10;;
6513;SDS011;3290;47.716;9.070;2023-03-11T11:47:54;2.40;;;1.30;;
6513;SDS011;3290;47.716;9.070;2023-03-11T11:53:03;2.77;;;1.10;;
6513;SDS011;3290;47.716;9.070;2023-03-11T11:55:37;1.57;;;1.10;;
6513;SDS011;3290;47.716;9.070;2023-03-11T11:58:11;1.93;;;1.30;;
6513;SDS011;3290;47.716;9.070;2023-03-11T12:00:40;2.50;;;1.13;;
6513;SDS011;3290;47.716;9.070;2023-03-11T12:06:28;1.53;;;1.00;;
6513;SDS011;3290;47.716;9.070;2023-03-11T12:11:53;4.53;;;1.30;;
6513;SDS011;3290;47.716;9.070;2023-03-11T12:14:24;1.70;;;1.40;;
6513;SDS011;3290;47.716;9.070;2023-03-11T12:27:24;1.37;;;1.20;;
6513;SDS011;3290;47.716;9.070;2023-03-11T12:29:56;1.40;;;1.30;;
6513;SDS011;3290;47.716;9.070;2023-03-11T12:32:34;1.60;;;1.50;;
6513;SDS011;3290;47.716;9.070;2023-03-11T12:35:24;4.03;;;1.20;;
6513;SDS011;3290;47.716;9.070;2023-03-11T12:37:56;1.17;;;1.07;;
6513;SDS011;3290;47.716;9.070;2023-03-11T12:40:42;2.47;;;1.70;;
6513;SDS011;3290;47.716;9.070;2023-03-11T12:46:12;3.43;;;1.50;;
6513;SDS011;3290;47.716;9.070;2023-03-11T12:48:48;3.67;;;1.93;;
6513;SDS011;3290;47.716;9.070;2023-03-11T12:57:00;5.40;;;1.70;;
6513;SDS011;3290;47.716;9.070;2023-03-11T12:59:46;7.80;;;4.90;;
6513;SDS011;3290;47.716;9.070;2023-03-11T13:07:50;1.87;;;1.70;;
6513;SDS011;3290;47.716;9.070;2023-03-11T13:18:40;2.77;;;1.30;;
6513;SDS011;3290;47.716;9.070;2023-03-11T13:23:51;1.80;;;1.50;;
6513;SDS011;3290;47.716;9.070;2023-03-11T13:26:41;1.83;;;1.50;;
6513;SDS011;3290;47.716;9.070;2023-03-11T13:31:58;5.23;;;1.90;;
6513;SDS011;3290;47.716;9.070;2023-03-11T13:34:40;2.17;;;1.60;;
6513;SDS011;3290;47.716;9.070;2023-03-11T13:40:36;2.70;;;1.60;;
6513;SDS011;3290;47.716;9.070;2023-03-11T13:43:04;2.00;;;1.70;;
6513;SDS011;3290;47.716;9.070;2023-03-11T13:45:36;3.17;;;1.57;;
6513;SDS011;3290;47.716;9.070;2023-03-11T13:48:19;2.17;;;1.90;;
6513;SDS011;3290;47.716;9.070;2023-03-11T13:50:54;1.90;;;1.50;;
6513;SDS011;3290;47.716;9.070;2023-03-11T13:53:27;1.87;;;1.50;;
6513;SDS011;3290;47.716;9.070;2023-03-11T13:55:58;1.93;;;1.40;;
6513;SDS011;3290;47.716;9.070;2023-03-11T13:58:25;3.93;;;1.43;;
6513;SDS011;3290;47.716;9.070;2023-03-11T14:00:56;3.23;;;1.60;;
6513;SDS011;3290;47.716;9.070;2023-03-11T14:03:24;2.20;;;1.50;;
6513;SDS011;3290;47.716;9.070;2023-03-11T14:06:34;1.30;;;1.20;;
6513;SDS011;3290;47.716;9.070;2023-03-11T14:08:42;2.77;;;1.50;;
6513;SDS011;3290;47.716;9.070;2023-03-11T14:11:23;1.70;;;1.20;;
6513;SDS011;3290;47.716;9.070;2023-03-11T14:13:51;1.23;;;1.10;;
6513;SDS011;3290;47.716;9.070;2023-03-11T14:18:46;0.80;;;0.77;;
6513;SDS011;3290;47.716;9.070;2023-03-11T14:21:25;1.37;;;1.10;;
6513;SDS011;3290;47.716;9.070;2023-03-11T14:23:52;1.70;;;1.03;;
6513;SDS011;3290;47.716;9.070;2023-03-11T14:26:20;1.10;;;1.00;;
6513;SDS011;3290;47.716;9.070;2023-03-11T14:28:48;6.17;;;1.27;;
6513;SDS011;3290;47.716;9.070;2023-03-11T14:31:49;1.40;;;1.20;;
6513;SDS011;3290;47.716;9.070;2023-03-11T14:36:44;1.50;;;1.30;;
6513;SDS011;3290;47.716;9.070;2023-03-11T14:47:29;1.63;;;1.27;;
6513;SDS011;3290;47.716;9.070;2023-03-11T14:50:03;1.77;;;1.50;;
6513;SDS011;3290;47.716;9.070;2023-03-11T14:52:40;2.67;;;1.30;;
6513;SDS011;3290;47.716;9.070;2023-03-11T14:55:11;2.00;;;1.50;;
6513;SDS011;3290;47.716;9.070;2023-03-11T14:57:45;1.70;;;1.50;;
6513;SDS011;3290;47.716;9.070;2023-03-11T15:00:26;2.00;;;1.80;;
6513;SDS011;3290;47.716;9.070;2023-03-11T15:05:34;2.30;;;2.00;;
6513;SDS011;3290;47.716;9.070;2023-03-11T15:08:22;5.43;;;1.50;;
6513;SDS011;3290;47.716;9.070;2023-03-11T15:11:13;4.13;;;1.73;;
6513;SDS011;3290;47.716;9.070;2023-03-11T15:13:44;2.10;;;1.80;;
6513;SDS011;3290;47.716;9.070;2023-03-11T15:16:21;1.40;;;1.30;;
6513;SDS011;3290;47.716;9.070;2023-03-11T15:18:48;2.43;;;1.50;;
6513;SDS011;3290;47.716;9.070;2023-03-11T15:21:15;2.47;;;1.33;;
6513;SDS011;3290;47.716;9.070;2023-03-11T15:23:46;1.80;;;1.37;;
6513;SDS011;3290;47.716;9.070;2023-03-11T15:26:23;1.63;;;1.50;;
6513;SDS011;3290;47.716;9.070;2023-03-11T15:28:57;1.60;;;1.50;;
6513;SDS011;3290;47.716;9.070;2023-03-11T15:31:37;1.60;;;1.37;;
6513;SDS011;3290;47.716;9.070;2023-03-11T15:34:19;2.07;;;1.77;;
6513;SDS011;3290;47.716;9.070;2023-03-11T15:39:19;7.30;;;3.33;;
6513;SDS011;3290;47.716;9.070;2023-03-11T15:44:36;6.43;;;2.20;;
6513;SDS011;3290;47.716;9.070;2023-03-11T15:47:05;2.33;;;1.70;;
6513;SDS011;3290;47.716;9.070;2023-03-11T15:49:40;1.60;;;1.50;;
6513;SDS011;3290;47.716;9.070;2023-03-11T15:52:06;2.67;;;2.10;;
6513;SDS011;3290;47.716;9.070;2023-03-11T15:54:32;2.83;;;1.70;;
6513;SDS011;3290;47.716;9.070;2023-03-11T15:56:58;2.20;;;2.00;;
6513;SDS011;3290;47.716;9.070;2023-03-11T15:59:27;6.67;;;2.67;;
6513;SDS011;3290;47.716;9.070;2023-03-11T16:01:54;2.73;;;2.43;;
6513;SDS011;3290;47.716;9.070;2023-03-11T16:04:20;3.23;;;2.40;;
6513;SDS011;3290;47.716;9.070;2023-03-11T16:06:46;3.50;;;2.13;;
6513;SDS011;3290;47.716;9.070;2023-03-11T16:09:13;2.33;;;2.13;;
6513;SDS011;3290;47.716;9.070;2023-03-11T16:11:39;2.47;;;2.20;;
6513;SDS011;3290;47.716;9.070;2023-03-11T16:14:08;3.83;;;2.20;;
6513;SDS011;3290;47.716;9.070;2023-03-11T16:16:40;2.73;;;2.37;;
6513;SDS011;3290;47.716;9.070;2023-03-11T16:19:06;3.40;;;2.67;;
6513;SDS011;3290;47.716;9.070;2023-03-11T16:21:35;3.47;;;2.90;;
6513;SDS011;3290;47.716;9.070;2023-03-11T16:24:04;3.00;;;2.77;;
6513;SDS011;3290;47.716;9.070;2023-03-11T16:26:30;3.70;;;3.00;;
6513;SDS011;3290;47.716;9.070;2023-03-11T16:28:56;9.40;;;3.50;;
6513;SDS011;3290;47.716;9.070;2023-03-11T16:31:22;3.87;;;3.27;;
6513;SDS011;3290;47.716;9.070;2023-03-11T16:33:47;4.87;;;3.40;;
6513;SDS011;3290;47.716;9.070;2023-03-11T16:36:12;4.30;;;3.70;;
6513;SDS011;3290;47.716;9.070;2023-03-11T16:38:42;4.03;;;3.63;;
6513;SDS011;3290;47.716;9.070;2023-03-11T16:41:13;3.43;;;3.13;;
6513;SDS011;3290;47.716;9.070;2023-03-11T16:43:39;4.40;;;3.63;;
6513;SDS011;3290;47.716;9.070;2023-03-11T16:46:05;5.37;;;3.90;;
6513;SDS011;3290;47.716;9.070;2023-03-11T16:48:30;5.47;;;4.10;;
6513;SDS011;3290;47.716;9.070;2023-03-11T16:50:56;5.83;;;4.07;;
6513;SDS011;3290;47.716;9.070;2023-03-11T16:53:21;6.10;;;4.30;;
6513;SDS011;3290;47.716;9.070;2023-03-11T16:55:49;11.03;;;3.80;;
6513;SDS011;3290;47.716;9.070;2023-03-11T16:58:14;5.67;;;4.43;;
6513;SDS011;3290;47.716;9.070;2023-03-11T17:00:40;4.80;;;4.30;;
6513;SDS011;3290;47.716;9.070;2023-03-11T17:03:10;4.27;;;3.90;;
6513;SDS011;3290;47.716;9.070;2023-03-11T17:05:36;4.10;;;3.70;;
6513;SDS011;3290;47.716;9.070;2023-03-11T17:08:01;6.97;;;5.27;;
6513;SDS011;3290;47.716;9.070;2023-03-11T17:10:38;10.60;;;5.03;;
6513;SDS011;3290;47.716;9.070;2023-03-11T17:13:07;4.67;;;3.87;;
6513;SDS011;3290;47.716;9.070;2023-03-11T17:15:34;5.40;;;4.13;;
6513;SDS011;3290;47.716;9.070;2023-03-11T17:18:00;6.00;;;4.50;;